Chrisney, IN (47611)

2:01 AM CST on February 11, 2016 (GMT -0600)
Christmas Lake Village | | Change Station
CLOSE
Current Station
Personal Weather Station
Location: Santa Claus, IN
Elevation: 427 ft
Nearby Weather Stations

Elev 427 ft 38.11 °N, 86.91 °W | Updated 5 minutes ago

Overcast
Overcast
21.6 °F
Feels Like 22 °F
N
1.7
Wind Variable Wind from ESE

Today
High -- | Low -- °F
--% Chance of Precip.
Yesterday
High -- | Low -- °F
Precip. -- in
Pressure 30.18 in
Visibility 10.0 miles
Clouds Scattered Clouds 1800 ft
Overcast 6500 ft
Windchill 22 °F
Dew Point 18 °F
Humidity 86%
Rainfall 0.00 in
Snow Depth Not available.
6:43 AM 5:22 PM
Waxing Crescent, 10% visible
METAR KHNB 110755Z AUTO 36005KT 10SM SCT018 OVC065 M06/M09 A3018 RMK AO1
Pressure 30.18 in
Visibility 10.0 miles
Clouds Scattered Clouds 1800 ft
Overcast 6500 ft
Windchill 22 °F
Dew Point 18 °F
Humidity 86%
Rainfall 0.00 in
Snow Depth Not available.
6:43 AM 5:22 PM
Waxing Crescent, 10% visible
METAR KHNB 110755Z AUTO 36005KT 10SM SCT018 OVC065 M06/M09 A3018 RMK AO1

10-Day Weather Forecast

Almanac

Astronomy

Feb. 11, 2016 Rise Set
Actual Time
Civil Twilight
Nautical Twilight
Astronomical Twilight
Moon
Length of Visible Light
Length of Day
Tomorrow will be .
, % of the Moon is Illuminated

Today's Extremes

State Highs State Lows

Community

WunderPhotos

Upload Photos

1,892,030 photos uploaded!

WunderBlog® & News

Nearby

Air Quality

  Air Quality AQ Index Pollutant
Not available.

Snow Depth

Station Depth Elevation

Earthquake Activity

City Distance Mag. Time & Date
Minimum magnitude displayed is 2.5.

Coastal Water Temperatures

Place Temperature

Stations

Nearby Weather Stations

Station Location Temp. Windchill Dew Point Humidity Wind Precip. Elev Updated Type
                   

Watches & Warnings

There are currently no watches in effect.